sensor_id;sensor_type;location;lat;lon;timestamp;temperature;humidity
2202;DHT22;1107;48.654;9.250;2023-02-28T00:01:17;-1.60;99.90
2202;DHT22;1107;48.654;9.250;2023-02-28T00:03:44;-1.60;99.90
2202;DHT22;1107;48.654;9.250;2023-02-28T00:06:11;-1.60;99.90
2202;DHT22;1107;48.654;9.250;2023-02-28T00:08:39;-1.60;99.90
2202;DHT22;1107;48.654;9.250;2023-02-28T00:11:09;-1.60;99.90
2202;DHT22;1107;48.654;9.250;2023-02-28T00:13:39;-1.70;99.90
2202;DHT22;1107;48.654;9.250;2023-02-28T00:16:08;-1.70;99.90
2202;DHT22;1107;48.654;9.250;2023-02-28T00:18:35;-1.70;99.90
2202;DHT22;1107;48.654;9.250;2023-02-28T00:21:03;-1.70;99.90
2202;DHT22;1107;48.654;9.250;2023-02-28T00:23:30;-1.80;99.90
2202;DHT22;1107;48.654;9.250;2023-02-28T00:25:57;-1.80;99.90
2202;DHT22;1107;48.654;9.250;2023-02-28T00:28:25;-1.80;99.90
2202;DHT22;1107;48.654;9.250;2023-02-28T00:30:52;-1.80;99.90
2202;DHT22;1107;48.654;9.250;2023-02-28T00:33:19;-1.80;99.90
2202;DHT22;1107;48.654;9.250;2023-02-28T00:35:46;-1.80;99.90
2202;DHT22;1107;48.654;9.250;2023-02-28T00:38:14;-1.80;99.90
2202;DHT22;1107;48.654;9.250;2023-02-28T00:40:41;-1.80;99.90
2202;DHT22;1107;48.654;9.250;2023-02-28T00:43:08;-1.80;99.90
2202;DHT22;1107;48.654;9.250;2023-02-28T00:45:37;-1.80;99.90
2202;DHT22;1107;48.654;9.250;2023-02-28T00:48:04;-1.80;99.90
2202;DHT22;1107;48.654;9.250;2023-02-28T00:50:31;-1.90;99.90
2202;DHT22;1107;48.654;9.250;2023-02-28T00:52:58;-1.80;99.90
2202;DHT22;1107;48.654;9.250;2023-02-28T00:55:25;-1.90;99.90
2202;DHT22;1107;48.654;9.250;2023-02-28T00:57:52;-1.90;99.90
2202;DHT22;1107;48.654;9.250;2023-02-28T01:00:19;-1.90;1.00
2202;DHT22;1107;48.654;9.250;2023-02-28T01:02:48;-1.90;1.00
2202;DHT22;1107;48.654;9.250;2023-02-28T01:05:15;-1.90;1.00
2202;DHT22;1107;48.654;9.250;2023-02-28T01:07:42;-1.90;1.00
2202;DHT22;1107;48.654;9.250;2023-02-28T01:10:10;-1.90;1.00
2202;DHT22;1107;48.654;9.250;2023-02-28T01:12:37;-2.00;1.00
2202;DHT22;1107;48.654;9.250;2023-02-28T01:15:05;-2.00;1.00
2202;DHT22;1107;48.654;9.250;2023-02-28T01:17:32;-2.00;1.00
2202;DHT22;1107;48.654;9.250;2023-02-28T01:20:00;-2.00;1.00
2202;DHT22;1107;48.654;9.250;2023-02-28T01:22:28;-1.90;1.00
2202;DHT22;1107;48.654;9.250;2023-02-28T01:24:55;-2.00;1.00
2202;DHT22;1107;48.654;9.250;2023-02-28T01:27:22;-2.00;1.00
2202;DHT22;1107;48.654;9.250;2023-02-28T01:29:50;-2.00;1.00
2202;DHT22;1107;48.654;9.250;2023-02-28T01:32:17;-2.00;1.00
2202;DHT22;1107;48.654;9.250;2023-02-28T01:34:44;-2.00;1.00
2202;DHT22;1107;48.654;9.250;2023-02-28T01:37:12;-2.00;1.00
2202;DHT22;1107;48.654;9.250;2023-02-28T01:39:39;-2.00;1.00
2202;DHT22;1107;48.654;9.250;2023-02-28T01:42:08;-2.00;1.00
2202;DHT22;1107;48.654;9.250;2023-02-28T01:45:01;-2.00;1.00
2202;DHT22;1107;48.654;9.250;2023-02-28T01:47:32;-2.00;1.00
2202;DHT22;1107;48.654;9.250;2023-02-28T01:50:02;-2.00;1.00
2202;DHT22;1107;48.654;9.250;2023-02-28T01:52:32;-2.00;1.00
2202;DHT22;1107;48.654;9.250;2023-02-28T01:55:01;-2.00;1.00
2202;DHT22;1107;48.654;9.250;2023-02-28T01:57:30;-2.00;1.00
2202;DHT22;1107;48.654;9.250;2023-02-28T02:00:07;-2.00;1.00
2202;DHT22;1107;48.654;9.250;2023-02-28T02:02:36;-2.00;1.00
2202;DHT22;1107;48.654;9.250;2023-02-28T02:05:06;-2.00;1.00
2202;DHT22;1107;48.654;9.250;2023-02-28T02:07:37;-2.10;1.00
2202;DHT22;1107;48.654;9.250;2023-02-28T02:10:09;-2.00;1.00
2202;DHT22;1107;48.654;9.250;2023-02-28T02:15:32;-2.00;1.00
2202;DHT22;1107;48.654;9.250;2023-02-28T02:18:07;-2.00;1.00
2202;DHT22;1107;48.654;9.250;2023-02-28T02:20:55;-2.00;1.00
2202;DHT22;1107;48.654;9.250;2023-02-28T02:23:39;-2.00;1.00
2202;DHT22;1107;48.654;9.250;2023-02-28T02:32:19;-1.90;1.00
2202;DHT22;1107;48.654;9.250;2023-02-28T02:34:59;-1.90;1.00
2202;DHT22;1107;48.654;9.250;2023-02-28T02:37:36;-1.80;1.00
2202;DHT22;1107;48.654;9.250;2023-02-28T02:40:11;-1.80;1.00
2202;DHT22;1107;48.654;9.250;2023-02-28T02:42:47;-1.80;1.00
2202;DHT22;1107;48.654;9.250;2023-02-28T02:45:19;-1.80;1.00
2202;DHT22;1107;48.654;9.250;2023-02-28T02:47:50;-1.80;1.00
2202;DHT22;1107;48.654;9.250;2023-02-28T02:50:22;-1.80;1.00
2202;DHT22;1107;48.654;9.250;2023-02-28T02:52:54;-1.80;1.00
2202;DHT22;1107;48.654;9.250;2023-02-28T02:55:23;-1.80;1.00
2202;DHT22;1107;48.654;9.250;2023-02-28T02:57:53;-1.80;1.00
2202;DHT22;1107;48.654;9.250;2023-02-28T03:00:23;-1.80;1.00
2202;DHT22;1107;48.654;9.250;2023-02-28T03:02:53;-1.80;1.00
2202;DHT22;1107;48.654;9.250;2023-02-28T03:05:25;-1.90;1.00
2202;DHT22;1107;48.654;9.250;2023-02-28T03:07:53;-1.80;1.00
2202;DHT22;1107;48.654;9.250;2023-02-28T03:10:29;-1.90;1.00
2202;DHT22;1107;48.654;9.250;2023-02-28T03:13:06;-1.80;1.00
2202;DHT22;1107;48.654;9.250;2023-02-28T03:15:44;-1.80;1.00
2202;DHT22;1107;48.654;9.250;2023-02-28T03:18:22;-1.80;1.00
2202;DHT22;1107;48.654;9.250;2023-02-28T03:20:58;-1.70;1.00
2202;DHT22;1107;48.654;9.250;2023-02-28T03:23:33;-1.70;1.00
2202;DHT22;1107;48.654;9.250;2023-02-28T03:26:04;-1.70;1.00
2202;DHT22;1107;48.654;9.250;2023-02-28T03:28:40;-1.70;1.00
2202;DHT22;1107;48.654;9.250;2023-02-28T03:31:16;-1.60;1.00
2202;DHT22;1107;48.654;9.250;2023-02-28T03:33:48;-1.60;1.00
2202;DHT22;1107;48.654;9.250;2023-02-28T03:36:24;-1.60;1.00
2202;DHT22;1107;48.654;9.250;2023-02-28T03:38:56;-1.50;1.00
2202;DHT22;1107;48.654;9.250;2023-02-28T03:41:31;-1.50;1.00
2202;DHT22;1107;48.654;9.250;2023-02-28T03:44:03;-1.60;1.00
2202;DHT22;1107;48.654;9.250;2023-02-28T03:46:36;-1.60;1.00
2202;DHT22;1107;48.654;9.250;2023-02-28T03:49:08;-1.50;1.00
2202;DHT22;1107;48.654;9.250;2023-02-28T03:51:40;-1.50;1.00
2202;DHT22;1107;48.654;9.250;2023-02-28T03:54:12;-1.50;1.00
2202;DHT22;1107;48.654;9.250;2023-02-28T03:56:45;-1.50;1.00
2202;DHT22;1107;48.654;9.250;2023-02-28T03:59:18;-1.50;1.00
2202;DHT22;1107;48.654;9.250;2023-02-28T04:01:48;-1.50;1.00
2202;DHT22;1107;48.654;9.250;2023-02-28T04:04:16;-1.50;1.00
2202;DHT22;1107;48.654;9.250;2023-02-28T04:06:45;-1.50;1.00
2202;DHT22;1107;48.654;9.250;2023-02-28T04:09:13;-1.40;1.00
2202;DHT22;1107;48.654;9.250;2023-02-28T04:11:42;-1.40;1.00
2202;DHT22;1107;48.654;9.250;2023-02-28T04:14:11;-1.40;1.00
2202;DHT22;1107;48.654;9.250;2023-02-28T04:16:39;-1.40;1.00
2202;DHT22;1107;48.654;9.250;2023-02-28T04:19:08;-1.40;1.00
2202;DHT22;1107;48.654;9.250;2023-02-28T04:21:38;-1.40;1.00
2202;DHT22;1107;48.654;9.250;2023-02-28T04:24:08;-1.40;1.00
2202;DHT22;1107;48.654;9.250;2023-02-28T04:26:40;-1.40;1.00
2202;DHT22;1107;48.654;9.250;2023-02-28T04:29:10;-1.30;1.00
2202;DHT22;1107;48.654;9.250;2023-02-28T04:31:37;-1.40;1.00
2202;DHT22;1107;48.654;9.250;2023-02-28T04:34:05;-1.40;1.00
2202;DHT22;1107;48.654;9.250;2023-02-28T04:36:32;-1.30;1.00
2202;DHT22;1107;48.654;9.250;2023-02-28T04:38:59;-1.30;1.00
2202;DHT22;1107;48.654;9.250;2023-02-28T04:41:27;-1.30;1.00
2202;DHT22;1107;48.654;9.250;2023-02-28T04:43:54;-1.40;1.00
2202;DHT22;1107;48.654;9.250;2023-02-28T04:46:22;-1.30;1.00
2202;DHT22;1107;48.654;9.250;2023-02-28T04:48:49;-1.30;1.00
2202;DHT22;1107;48.654;9.250;2023-02-28T04:51:18;-1.30;1.00
2202;DHT22;1107;48.654;9.250;2023-02-28T04:53:45;-1.30;1.00
2202;DHT22;1107;48.654;9.250;2023-02-28T04:56:14;-1.20;1.00
2202;DHT22;1107;48.654;9.250;2023-02-28T04:58:43;-1.20;1.00
2202;DHT22;1107;48.654;9.250;2023-02-28T05:01:19;-1.20;1.00
2202;DHT22;1107;48.654;9.250;2023-02-28T05:03:47;-1.20;1.00
2202;DHT22;1107;48.654;9.250;2023-02-28T05:06:15;-1.20;1.00
2202;DHT22;1107;48.654;9.250;2023-02-28T05:08:42;-1.20;1.00
2202;DHT22;1107;48.654;9.250;2023-02-28T05:11:15;-1.20;1.00
2202;DHT22;1107;48.654;9.250;2023-02-28T05:13:44;-1.20;1.00
2202;DHT22;1107;48.654;9.250;2023-02-28T05:16:11;-1.20;1.00
2202;DHT22;1107;48.654;9.250;2023-02-28T05:18:39;-1.30;1.00
2202;DHT22;1107;48.654;9.250;2023-02-28T05:21:06;-1.20;1.00
2202;DHT22;1107;48.654;9.250;2023-02-28T05:23:33;-1.20;1.00
2202;DHT22;1107;48.654;9.250;2023-02-28T05:25:59;-1.20;1.00
2202;DHT22;1107;48.654;9.250;2023-02-28T05:28:26;-1.30;1.00
2202;DHT22;1107;48.654;9.250;2023-02-28T05:30:55;-1.30;1.00
2202;DHT22;1107;48.654;9.250;2023-02-28T05:33:22;-1.30;1.00
2202;DHT22;1107;48.654;9.250;2023-02-28T05:35:48;-1.20;1.00
2202;DHT22;1107;48.654;9.250;2023-02-28T05:38:15;-1.20;1.00
2202;DHT22;1107;48.654;9.250;2023-02-28T05:40:43;-1.20;1.00
2202;DHT22;1107;48.654;9.250;2023-02-28T05:43:10;-1.20;1.00
2202;DHT22;1107;48.654;9.250;2023-02-28T05:45:38;-1.20;1.00
2202;DHT22;1107;48.654;9.250;2023-02-28T05:48:07;-1.20;1.00
2202;DHT22;1107;48.654;9.250;2023-02-28T05:50:34;-1.20;1.00
2202;DHT22;1107;48.654;9.250;2023-02-28T05:53:01;-1.10;1.00
2202;DHT22;1107;48.654;9.250;2023-02-28T05:55:28;-1.20;1.00
2202;DHT22;1107;48.654;9.250;2023-02-28T05:57:55;-1.20;1.00
2202;DHT22;1107;48.654;9.250;2023-02-28T06:00:23;-1.20;1.00
2202;DHT22;1107;48.654;9.250;2023-02-28T06:02:50;-1.20;1.00
2202;DHT22;1107;48.654;9.250;2023-02-28T06:05:20;-1.10;1.00
2202;DHT22;1107;48.654;9.250;2023-02-28T06:07:47;-1.10;1.00
2202;DHT22;1107;48.654;9.250;2023-02-28T06:10:14;-1.10;1.00
2202;DHT22;1107;48.654;9.250;2023-02-28T06:12:41;-1.10;1.00
2202;DHT22;1107;48.654;9.250;2023-02-28T06:15:11;-1.10;1.00
2202;DHT22;1107;48.654;9.250;2023-02-28T06:17:38;-1.00;1.00
2202;DHT22;1107;48.654;9.250;2023-02-28T06:20:06;-1.00;1.00
2202;DHT22;1107;48.654;9.250;2023-02-28T06:22:35;-1.00;1.00
2202;DHT22;1107;48.654;9.250;2023-02-28T06:25:02;-1.00;1.00
2202;DHT22;1107;48.654;9.250;2023-02-28T06:27:30;-1.00;1.00
2202;DHT22;1107;48.654;9.250;2023-02-28T06:29:57;-1.00;1.00
2202;DHT22;1107;48.654;9.250;2023-02-28T06:32:24;-1.00;1.00
2202;DHT22;1107;48.654;9.250;2023-02-28T06:34:51;-0.90;1.00
2202;DHT22;1107;48.654;9.250;2023-02-28T06:37:18;-0.90;1.00
2202;DHT22;1107;48.654;9.250;2023-02-28T06:39:47;-0.90;1.00
2202;DHT22;1107;48.654;9.250;2023-02-28T06:42:14;-0.80;1.00
2202;DHT22;1107;48.654;9.250;2023-02-28T06:44:40;-0.90;1.00
2202;DHT22;1107;48.654;9.250;2023-02-28T06:47:08;-0.80;1.00
2202;DHT22;1107;48.654;9.250;2023-02-28T06:49:36;-0.80;1.00
2202;DHT22;1107;48.654;9.250;2023-02-28T06:52:04;-0.70;1.00
2202;DHT22;1107;48.654;9.250;2023-02-28T06:54:31;-0.80;1.00
2202;DHT22;1107;48.654;9.250;2023-02-28T06:57:00;-0.80;1.00
2202;DHT22;1107;48.654;9.250;2023-02-28T06:59:27;-0.80;1.00
2202;DHT22;1107;48.654;9.250;2023-02-28T07:01:53;-0.70;1.00
2202;DHT22;1107;48.654;9.250;2023-02-28T07:04:21;-0.80;1.00
2202;DHT22;1107;48.654;9.250;2023-02-28T07:06:48;-0.80;1.00
2202;DHT22;1107;48.654;9.250;2023-02-28T07:09:15;-0.80;1.00
2202;DHT22;1107;48.654;9.250;2023-02-28T07:11:42;-0.80;1.00
2202;DHT22;1107;48.654;9.250;2023-02-28T07:14:10;-0.70;1.00
2202;DHT22;1107;48.654;9.250;2023-02-28T07:16:37;-0.70;1.00
2202;DHT22;1107;48.654;9.250;2023-02-28T07:19:04;-0.70;1.00
2202;DHT22;1107;48.654;9.250;2023-02-28T07:21:31;-0.70;1.00
2202;DHT22;1107;48.654;9.250;2023-02-28T07:23:58;-0.60;1.00
2202;DHT22;1107;48.654;9.250;2023-02-28T07:26:25;-0.70;1.00
2202;DHT22;1107;48.654;9.250;2023-02-28T07:28:52;-0.70;1.00
2202;DHT22;1107;48.654;9.250;2023-02-28T07:31:21;-0.70;1.00
2202;DHT22;1107;48.654;9.250;2023-02-28T07:33:48;-0.60;1.00
2202;DHT22;1107;48.654;9.250;2023-02-28T07:36:16;-0.70;1.00
2202;DHT22;1107;48.654;9.250;2023-02-28T07:38:46;-0.60;1.00
2202;DHT22;1107;48.654;9.250;2023-02-28T07:41:16;-0.60;1.00
2202;DHT22;1107;48.654;9.250;2023-02-28T07:43:43;-0.60;1.00
2202;DHT22;1107;48.654;9.250;2023-02-28T07:46:12;-0.50;1.00
2202;DHT22;1107;48.654;9.250;2023-02-28T07:48:42;-0.60;1.00
2202;DHT22;1107;48.654;9.250;2023-02-28T07:51:09;-0.50;1.00
2202;DHT22;1107;48.654;9.250;2023-02-28T07:53:36;-0.50;1.00
2202;DHT22;1107;48.654;9.250;2023-02-28T07:56:04;-0.50;1.00
2202;DHT22;1107;48.654;9.250;2023-02-28T07:58:31;-0.50;1.00
2202;DHT22;1107;48.654;9.250;2023-02-28T08:01:05;-0.50;1.00
2202;DHT22;1107;48.654;9.250;2023-02-28T08:03:32;-0.40;1.00
2202;DHT22;1107;48.654;9.250;2023-02-28T08:06:00;-0.30;1.00
2202;DHT22;1107;48.654;9.250;2023-02-28T08:08:28;-0.30;1.00
2202;DHT22;1107;48.654;9.250;2023-02-28T08:10:58;-0.30;1.00
2202;DHT22;1107;48.654;9.250;2023-02-28T08:13:26;-0.30;1.00
2202;DHT22;1107;48.654;9.250;2023-02-28T08:15:53;-0.30;1.00
2202;DHT22;1107;48.654;9.250;2023-02-28T08:18:20;-0.20;1.00
2202;DHT22;1107;48.654;9.250;2023-02-28T08:20:47;-0.30;1.00
2202;DHT22;1107;48.654;9.250;2023-02-28T08:23:15;-0.30;1.00
2202;DHT22;1107;48.654;9.250;2023-02-28T08:25:42;-0.20;1.00
2202;DHT22;1107;48.654;9.250;2023-02-28T08:28:09;-0.20;1.00
2202;DHT22;1107;48.654;9.250;2023-02-28T08:30:36;-0.20;1.00
2202;DHT22;1107;48.654;9.250;2023-02-28T08:33:06;-0.20;1.00
2202;DHT22;1107;48.654;9.250;2023-02-28T08:35:35;-0.20;1.00
2202;DHT22;1107;48.654;9.250;2023-02-28T08:38:02;-0.10;1.00
2202;DHT22;1107;48.654;9.250;2023-02-28T08:40:31;-0.10;1.00
2202;DHT22;1107;48.654;9.250;2023-02-28T08:42:58;-0.10;1.00
2202;DHT22;1107;48.654;9.250;2023-02-28T08:45:25;0.00;1.00
2202;DHT22;1107;48.654;9.250;2023-02-28T08:47:53;0.00;1.00
2202;DHT22;1107;48.654;9.250;2023-02-28T08:50:20;0.00;1.00
2202;DHT22;1107;48.654;9.250;2023-02-28T08:52:47;0.10;99.90
2202;DHT22;1107;48.654;9.250;2023-02-28T08:55:14;0.10;99.90
2202;DHT22;1107;48.654;9.250;2023-02-28T08:57:43;0.20;99.90
2202;DHT22;1107;48.654;9.250;2023-02-28T09:00:11;0.20;99.90
2202;DHT22;1107;48.654;9.250;2023-02-28T09:02:39;0.10;99.90
2202;DHT22;1107;48.654;9.250;2023-02-28T09:05:08;0.20;99.90
2202;DHT22;1107;48.654;9.250;2023-02-28T09:07:35;0.30;99.90
2202;DHT22;1107;48.654;9.250;2023-02-28T09:10:02;0.40;99.90
2202;DHT22;1107;48.654;9.250;2023-02-28T09:12:34;0.30;99.90
2202;DHT22;1107;48.654;9.250;2023-02-28T09:15:03;0.40;99.90
2202;DHT22;1107;48.654;9.250;2023-02-28T09:17:30;0.50;99.90
2202;DHT22;1107;48.654;9.250;2023-02-28T09:19:57;0.40;99.90
2202;DHT22;1107;48.654;9.250;2023-02-28T09:22:24;0.30;99.90
2202;DHT22;1107;48.654;9.250;2023-02-28T09:24:51;0.30;99.90
2202;DHT22;1107;48.654;9.250;2023-02-28T09:27:18;0.40;99.90
2202;DHT22;1107;48.654;9.250;2023-02-28T09:29:45;0.50;99.90
2202;DHT22;1107;48.654;9.250;2023-02-28T09:32:13;0.50;99.90
2202;DHT22;1107;48.654;9.250;2023-02-28T09:34:41;0.50;99.90
2202;DHT22;1107;48.654;9.250;2023-02-28T09:37:08;0.50;99.90
2202;DHT22;1107;48.654;9.250;2023-02-28T09:39:35;0.60;99.90
2202;DHT22;1107;48.654;9.250;2023-02-28T09:42:02;0.60;99.90
2202;DHT22;1107;48.654;9.250;2023-02-28T09:44:35;0.60;99.90
2202;DHT22;1107;48.654;9.250;2023-02-28T09:47:10;0.50;99.90
2202;DHT22;1107;48.654;9.250;2023-02-28T09:49:42;0.50;99.90
2202;DHT22;1107;48.654;9.250;2023-02-28T09:52:15;0.60;99.90
2202;DHT22;1107;48.654;9.250;2023-02-28T09:54:45;0.60;99.90
2202;DHT22;1107;48.654;9.250;2023-02-28T09:57:17;0.60;99.90
2202;DHT22;1107;48.654;9.250;2023-02-28T10:00:03;0.70;99.90
2202;DHT22;1107;48.654;9.250;2023-02-28T10:02:55;0.80;99.90
2202;DHT22;1107;48.654;9.250;2023-02-28T10:05:28;0.90;99.90
2202;DHT22;1107;48.654;9.250;2023-02-28T10:08:02;0.80;99.90
2202;DHT22;1107;48.654;9.250;2023-02-28T10:10:35;0.80;99.90
2202;DHT22;1107;48.654;9.250;2023-02-28T10:13:07;0.80;99.90
2202;DHT22;1107;48.654;9.250;2023-02-28T10:15:39;0.80;99.90
2202;DHT22;1107;48.654;9.250;2023-02-28T10:18:12;0.80;99.90
2202;DHT22;1107;48.654;9.250;2023-02-28T10:20:42;0.90;99.90
2202;DHT22;1107;48.654;9.250;2023-02-28T10:23:13;1.00;99.90
2202;DHT22;1107;48.654;9.250;2023-02-28T10:25:47;1.00;99.90
2202;DHT22;1107;48.654;9.250;2023-02-28T10:28:17;1.10;99.90
2202;DHT22;1107;48.654;9.250;2023-02-28T10:30:47;1.30;99.90
2202;DHT22;1107;48.654;9.250;2023-02-28T10:33:23;1.40;99.90
2202;DHT22;1107;48.654;9.250;2023-02-28T10:35:52;1.60;99.90
2202;DHT22;1107;48.654;9.250;2023-02-28T10:38:22;1.60;99.90
2202;DHT22;1107;48.654;9.250;2023-02-28T10:40:49;1.60;99.90
2202;DHT22;1107;48.654;9.250;2023-02-28T10:43:22;1.70;99.90
2202;DHT22;1107;48.654;9.250;2023-02-28T10:45:58;1.80;99.90
2202;DHT22;1107;48.654;9.250;2023-02-28T10:48:30;1.90;99.90
2202;DHT22;1107;48.654;9.250;2023-02-28T10:51:00;2.20;99.90
2202;DHT22;1107;48.654;9.250;2023-02-28T10:53:33;2.50;99.90
2202;DHT22;1107;48.654;9.250;2023-02-28T10:56:02;3.40;99.90
2202;DHT22;1107;48.654;9.250;2023-02-28T10:58:34;4.10;99.90
2202;DHT22;1107;48.654;9.250;2023-02-28T11:01:13;5.30;99.90
2202;DHT22;1107;48.654;9.250;2023-02-28T11:03:41;6.00;99.90
2202;DHT22;1107;48.654;9.250;2023-02-28T11:06:15;6.30;99.90
2202;DHT22;1107;48.654;9.250;2023-02-28T11:08:51;7.40;99.90
2202;DHT22;1107;48.654;9.250;2023-02-28T11:11:20;8.50;99.90
2202;DHT22;1107;48.654;9.250;2023-02-28T11:13:51;9.30;99.90
2202;DHT22;1107;48.654;9.250;2023-02-28T11:16:19;9.00;99.90
2202;DHT22;1107;48.654;9.250;2023-02-28T11:18:49;9.30;99.90
2202;DHT22;1107;48.654;9.250;2023-02-28T11:21:21;8.30;96.60
2202;DHT22;1107;48.654;9.250;2023-02-28T11:23:51;7.70;92.50
2202;DHT22;1107;48.654;9.250;2023-02-28T11:26:40;9.40;99.60
2202;DHT22;1107;48.654;9.250;2023-02-28T11:29:16;9.00;91.60
2202;DHT22;1107;48.654;9.250;2023-02-28T11:34:47;7.70;77.90
2202;DHT22;1107;48.654;9.250;2023-02-28T11:37:18;6.90;74.80
2202;DHT22;1107;48.654;9.250;2023-02-28T11:39:46;7.30;82.40
2202;DHT22;1107;48.654;9.250;2023-02-28T11:42:46;6.80;77.90
2202;DHT22;1107;48.654;9.250;2023-02-28T11:45:41;6.40;77.00
2202;DHT22;1107;48.654;9.250;2023-02-28T11:48:17;6.70;78.00
2202;DHT22;1107;48.654;9.250;2023-02-28T11:50:57;7.10;87.50
2202;DHT22;1107;48.654;9.250;2023-02-28T11:53:44;8.70;89.60
2202;DHT22;1107;48.654;9.250;2023-02-28T11:56:18;8.60;81.90
2202;DHT22;1107;48.654;9.250;2023-02-28T11:58:55;8.60;79.00
2202;DHT22;1107;48.654;9.250;2023-02-28T12:01:37;9.90;81.00
2202;DHT22;1107;48.654;9.250;2023-02-28T12:04:17;11.60;82.90
2202;DHT22;1107;48.654;9.250;2023-02-28T12:06:55;13.50;85.10
2202;DHT22;1107;48.654;9.250;2023-02-28T12:09:41;14.40;75.80
2202;DHT22;1107;48.654;9.250;2023-02-28T12:12:13;14.10;61.10
2202;DHT22;1107;48.654;9.250;2023-02-28T12:17:53;15.30;54.20
2202;DHT22;1107;48.654;9.250;2023-02-28T12:20:27;13.50;40.80
2202;DHT22;1107;48.654;9.250;2023-02-28T12:23:08;12.00;30.70
2202;DHT22;1107;48.654;9.250;2023-02-28T12:25:51;10.30;23.40
2202;DHT22;1107;48.654;9.250;2023-02-28T12:28:23;10.60;26.10
2202;DHT22;1107;48.654;9.250;2023-02-28T12:30:54;12.40;35.00
2202;DHT22;1107;48.654;9.250;2023-02-28T12:33:27;13.60;41.10
2202;DHT22;1107;48.654;9.250;2023-02-28T12:35:57;14.30;39.20
2202;DHT22;1107;48.654;9.250;2023-02-28T12:38:27;14.80;40.60
2202;DHT22;1107;48.654;9.250;2023-02-28T12:41:00;14.60;35.70
2202;DHT22;1107;48.654;9.250;2023-02-28T12:43:32;14.90;34.90
2202;DHT22;1107;48.654;9.250;2023-02-28T12:46:03;16.00;38.80
2202;DHT22;1107;48.654;9.250;2023-02-28T12:48:39;15.70;35.80
2202;DHT22;1107;48.654;9.250;2023-02-28T12:51:08;16.00;33.10
2202;DHT22;1107;48.654;9.250;2023-02-28T12:53:44;16.90;35.30
2202;DHT22;1107;48.654;9.250;2023-02-28T12:56:21;15.90;28.60
2202;DHT22;1107;48.654;9.250;2023-02-28T12:58:52;15.80;25.30
2202;DHT22;1107;48.654;9.250;2023-02-28T13:01:40;16.00;25.40
2202;DHT22;1107;48.654;9.250;2023-02-28T13:07:36;15.70;23.90
2202;DHT22;1107;48.654;9.250;2023-02-28T13:10:08;16.10;22.40
2202;DHT22;1107;48.654;9.250;2023-02-28T13:12:47;15.50;19.90
2202;DHT22;1107;48.654;9.250;2023-02-28T13:15:18;15.80;19.50
2202;DHT22;1107;48.654;9.250;2023-02-28T13:17:50;15.70;18.70
2202;DHT22;1107;48.654;9.250;2023-02-28T13:20:19;15.70;17.60
2202;DHT22;1107;48.654;9.250;2023-02-28T13:22:48;15.40;17.10
2202;DHT22;1107;48.654;9.250;2023-02-28T13:34:40;16.10;17.70
2202;DHT22;1107;48.654;9.250;2023-02-28T13:37:44;15.40;14.30
2202;DHT22;1107;48.654;9.250;2023-02-28T13:40:29;16.20;16.90
2202;DHT22;1107;48.654;9.250;2023-02-28T13:43:02;16.40;31.70
2202;DHT22;1107;48.654;9.250;2023-02-28T13:45:29;16.80;17.40
2202;DHT22;1107;48.654;9.250;2023-02-28T13:48:14;17.00;17.20
2202;DHT22;1107;48.654;9.250;2023-02-28T13:50:43;16.80;17.20
2202;DHT22;1107;48.654;9.250;2023-02-28T13:53:39;16.50;13.00
2202;DHT22;1107;48.654;9.250;2023-02-28T13:56:23;16.40;12.60
2202;DHT22;1107;48.654;9.250;2023-02-28T13:58:55;16.40;12.20
2202;DHT22;1107;48.654;9.250;2023-02-28T14:04:49;16.80;12.50
2202;DHT22;1107;48.654;9.250;2023-02-28T14:07:21;16.90;12.80
2202;DHT22;1107;48.654;9.250;2023-02-28T14:09:57;16.60;10.60
2202;DHT22;1107;48.654;9.250;2023-02-28T14:12:58;16.70;11.40
2202;DHT22;1107;48.654;9.250;2023-02-28T14:15:39;17.00;12.60
2202;DHT22;1107;48.654;9.250;2023-02-28T14:18:16;17.10;11.30
2202;DHT22;1107;48.654;9.250;2023-02-28T14:20:47;16.90;10.00
2202;DHT22;1107;48.654;9.250;2023-02-28T14:23:24;16.80;10.00
2202;DHT22;1107;48.654;9.250;2023-02-28T14:26:01;16.10;5.10
2202;DHT22;1107;48.654;9.250;2023-02-28T14:28:44;16.00;4.90
2202;DHT22;1107;48.654;9.250;2023-02-28T14:31:16;15.70;3.90
2202;DHT22;1107;48.654;9.250;2023-02-28T14:34:04;14.70;1.00
2202;DHT22;1107;48.654;9.250;2023-02-28T14:36:35;14.30;1.00
2202;DHT22;1107;48.654;9.250;2023-02-28T14:39:07;14.50;1.00
2202;DHT22;1107;48.654;9.250;2023-02-28T14:41:37;15.10;1.20
2202;DHT22;1107;48.654;9.250;2023-02-28T14:44:15;15.50;2.30
2202;DHT22;1107;48.654;9.250;2023-02-28T14:46:44;15.30;1.50
2202;DHT22;1107;48.654;9.250;2023-02-28T14:49:17;15.20;1.20
2202;DHT22;1107;48.654;9.250;2023-02-28T14:51:46;15.00;1.00
2202;DHT22;1107;48.654;9.250;2023-02-28T14:54:15;14.80;1.00
2202;DHT22;1107;48.654;9.250;2023-02-28T14:56:43;14.30;1.00
2202;DHT22;1107;48.654;9.250;2023-02-28T14:59:27;14.10;1.00
2202;DHT22;1107;48.654;9.250;2023-02-28T15:02:16;13.70;1.00
2202;DHT22;1107;48.654;9.250;2023-02-28T15:04:43;13.20;1.00
2202;DHT22;1107;48.654;9.250;2023-02-28T15:07:20;13.20;1.00
2202;DHT22;1107;48.654;9.250;2023-02-28T15:10:15;13.20;1.00
2202;DHT22;1107;48.654;9.250;2023-02-28T15:12:49;12.90;1.00
2202;DHT22;1107;48.654;9.250;2023-02-28T15:15:18;11.90;1.00
2202;DHT22;1107;48.654;9.250;2023-02-28T15:17:49;12.00;1.00
2202;DHT22;1107;48.654;9.250;2023-02-28T15:20:18;11.50;1.00
2202;DHT22;1107;48.654;9.250;2023-02-28T15:22:48;11.50;1.00
2202;DHT22;1107;48.654;9.250;2023-02-28T15:25:19;11.40;1.00
2202;DHT22;1107;48.654;9.250;2023-02-28T15:27:48;11.20;1.00
2202;DHT22;1107;48.654;9.250;2023-02-28T15:30:18;11.40;1.00
2202;DHT22;1107;48.654;9.250;2023-02-28T15:33:03;10.80;1.00
2202;DHT22;1107;48.654;9.250;2023-02-28T15:35:32;10.70;1.00
2202;DHT22;1107;48.654;9.250;2023-02-28T15:38:03;10.60;1.00
2202;DHT22;1107;48.654;9.250;2023-02-28T15:40:35;10.50;1.00
2202;DHT22;1107;48.654;9.250;2023-02-28T15:43:05;10.50;1.00
2202;DHT22;1107;48.654;9.250;2023-02-28T15:45:34;10.10;1.00
2202;DHT22;1107;48.654;9.250;2023-02-28T15:48:04;10.00;1.00
2202;DHT22;1107;48.654;9.250;2023-02-28T15:50:31;9.90;1.00
2202;DHT22;1107;48.654;9.250;2023-02-28T15:53:01;9.80;1.00
2202;DHT22;1107;48.654;9.250;2023-02-28T15:55:30;9.60;1.00
2202;DHT22;1107;48.654;9.250;2023-02-28T15:58:00;9.40;1.00
2202;DHT22;1107;48.654;9.250;2023-02-28T16:00:29;9.20;1.00
2202;DHT22;1107;48.654;9.250;2023-02-28T16:02:58;8.90;1.00
2202;DHT22;1107;48.654;9.250;2023-02-28T16:05:26;8.40;1.00
2202;DHT22;1107;48.654;9.250;2023-02-28T16:07:59;7.90;1.00
2202;DHT22;1107;48.654;9.250;2023-02-28T16:10:28;7.50;1.00
2202;DHT22;1107;48.654;9.250;2023-02-28T16:12:56;7.00;1.00
2202;DHT22;1107;48.654;9.250;2023-02-28T16:15:25;6.60;1.00
2202;DHT22;1107;48.654;9.250;2023-02-28T16:17:57;6.40;1.00
2202;DHT22;1107;48.654;9.250;2023-02-28T16:20:27;6.20;1.00
2202;DHT22;1107;48.654;9.250;2023-02-28T16:22:54;6.10;1.00
2202;DHT22;1107;48.654;9.250;2023-02-28T16:25:25;5.90;1.00
2202;DHT22;1107;48.654;9.250;2023-02-28T16:27:55;5.70;1.00
2202;DHT22;1107;48.654;9.250;2023-02-28T16:30:24;5.60;1.00
2202;DHT22;1107;48.654;9.250;2023-02-28T16:32:54;5.50;1.00
2202;DHT22;1107;48.654;9.250;2023-02-28T16:35:22;5.30;1.00
2202;DHT22;1107;48.654;9.250;2023-02-28T16:37:50;5.20;1.00
2202;DHT22;1107;48.654;9.250;2023-02-28T16:40:19;5.00;1.00
2202;DHT22;1107;48.654;9.250;2023-02-28T16:42:47;4.90;1.00
2202;DHT22;1107;48.654;9.250;2023-02-28T16:45:18;4.80;1.00
2202;DHT22;1107;48.654;9.250;2023-02-28T16:47:46;4.70;1.00
2202;DHT22;1107;48.654;9.250;2023-02-28T16:50:16;4.60;1.00
2202;DHT22;1107;48.654;9.250;2023-02-28T16:52:43;4.50;1.00
2202;DHT22;1107;48.654;9.250;2023-02-28T16:55:10;4.40;1.70
2202;DHT22;1107;48.654;9.250;2023-02-28T16:57:38;4.30;4.10
2202;DHT22;1107;48.654;9.250;2023-02-28T17:00:07;4.20;4.70
2202;DHT22;1107;48.654;9.250;2023-02-28T17:02:36;4.10;7.00
2202;DHT22;1107;48.654;9.250;2023-02-28T17:05:04;4.00;9.30
2202;DHT22;1107;48.654;9.250;2023-02-28T17:07:32;3.90;11.90
2202;DHT22;1107;48.654;9.250;2023-02-28T17:09:59;3.90;15.80
2202;DHT22;1107;48.654;9.250;2023-02-28T17:12:34;3.80;18.90